Time;durP1;ratioP1;P1;durP2;ratioP2;P2;SDS_P1;SDS_P2;PMS_P1;PMS_P2;Temp;Humidity;BMP_temperature;BMP_pressure;BME280_temperature;BME280_humidity;BME280_pressure;Samples;Min_cycle;Max_cycle;Signal;HPM_P1;HPM_P2
2021/10/14 00:01:01;;;;;;;26.70;17.10;;;;;;;;;;5055305;28;20209;-73
2021/10/14 00:03:27;;;;;;;26.97;16.73;;;;;;;;;;5054642;28;20205;-73
2021/10/14 00:05:54;;;;;;;24.53;15.83;;;;;;;;;;5055565;28;20234;-73
2021/10/14 00:08:20;;;;;;;27.60;17.10;;;;;;;;;;5054991;28;20263;-73
2021/10/14 00:10:47;;;;;;;27.47;17.20;;;;;;;;;;5057002;28;20218;-72
2021/10/14 00:13:13;;;;;;;25.93;16.67;;;;;;;;;;5056954;28;20247;-73
2021/10/14 00:15:41;;;;;;;30.93;19.13;;;;;;;;;;5056596;28;20220;-73
2021/10/14 00:18:09;;;;;;;27.10;17.40;;;;;;;;;;5056590;28;20213;-73
2021/10/14 00:20:36;;;;;;;26.23;17.33;;;;;;;;;;5055056;28;20994;-73
2021/10/14 00:23:02;;;;;;;30.27;18.93;;;;;;;;;;5055884;28;20221;-73
2021/10/14 00:25:29;;;;;;;29.30;17.77;;;;;;;;;;5058043;28;20556;-73
2021/10/14 00:27:55;;;;;;;23.83;17.63;;;;;;;;;;5055679;28;20295;-73
2021/10/14 00:30:21;;;;;;;28.53;18.37;;;;;;;;;;5054582;28;20207;-73
2021/10/14 00:32:48;;;;;;;31.13;19.87;;;;;;;;;;5056336;28;20272;-73
2021/10/14 00:35:16;;;;;;;34.90;21.63;;;;;;;;;;5055044;28;20288;-73
2021/10/14 00:37:42;;;;;;;32.00;20.30;;;;;;;;;;5057776;28;20376;-73
2021/10/14 00:40:10;;;;;;;32.83;20.20;;;;;;;;;;5055542;28;20218;-73
2021/10/14 00:42:37;;;;;;;30.60;20.50;;;;;;;;;;5056710;28;20238;-73
2021/10/14 00:45:04;;;;;;;32.67;21.07;;;;;;;;;;5056127;28;20876;-73
2021/10/14 00:47:30;;;;;;;35.30;21.30;;;;;;;;;;5056270;28;20221;-73
2021/10/14 00:49:58;;;;;;;34.30;21.60;;;;;;;;;;5056047;28;20279;-73
2021/10/14 00:52:27;;;;;;;38.80;22.93;;;;;;;;;;5057720;28;20214;-73
2021/10/14 00:54:55;;;;;;;38.70;22.70;;;;;;;;;;5057567;28;20230;-73
2021/10/14 00:57:22;;;;;;;38.23;25.53;;;;;;;;;;5055047;28;20276;-73
2021/10/14 00:59:48;;;;;;;40.27;26.13;;;;;;;;;;5056376;28;20222;-73
2021/10/14 01:02:15;;;;;;;42.03;25.47;;;;;;;;;;5055632;28;20214;-73
2021/10/14 01:04:41;;;;;;;47.03;29.03;;;;;;;;;;5054498;28;20214;-73
2021/10/14 01:07:08;;;;;;;53.47;32.40;;;;;;;;;;5054884;28;20267;-73
2021/10/14 01:09:38;;;;;;;57.37;34.33;;;;;;;;;;5054746;28;20206;-73
2021/10/14 01:12:05;;;;;;;47.63;32.40;;;;;;;;;;5055436;28;21158;-73
2021/10/14 01:14:32;;;;;;;57.17;36.23;;;;;;;;;;5056588;28;20594;-73
2021/10/14 01:16:59;;;;;;;59.23;36.43;;;;;;;;;;5055616;28;20282;-72
2021/10/14 01:19:26;;;;;;;59.67;34.13;;;;;;;;;;5057177;28;20259;-72
2021/10/14 01:21:54;;;;;;;64.40;39.23;;;;;;;;;;5055924;28;20217;-73
2021/10/14 01:24:21;;;;;;;61.50;39.27;;;;;;;;;;5053758;28;20207;-73
2021/10/14 01:26:47;;;;;;;66.33;38.40;;;;;;;;;;5053218;28;20233;-73
2021/10/14 01:29:14;;;;;;;58.50;37.87;;;;;;;;;;5054750;28;20279;-73
2021/10/14 01:31:41;;;;;;;67.30;40.63;;;;;;;;;;5054117;28;20214;-73
2021/10/14 01:34:08;;;;;;;64.43;39.03;;;;;;;;;;5053862;28;20234;-73
2021/10/14 01:36:34;;;;;;;57.63;36.83;;;;;;;;;;5052330;28;20311;-73
2021/10/14 01:39:02;;;;;;;60.47;40.53;;;;;;;;;;5054085;28;20704;-73
2021/10/14 01:41:29;;;;;;;61.00;39.67;;;;;;;;;;5055760;28;20210;-73
2021/10/14 01:43:55;;;;;;;58.33;38.13;;;;;;;;;;5053762;28;20213;-73
2021/10/14 01:46:21;;;;;;;58.60;36.60;;;;;;;;;;5054838;28;20252;-73
2021/10/14 01:48:48;;;;;;;51.07;35.57;;;;;;;;;;5054165;28;20836;-73
2021/10/14 01:51:14;;;;;;;62.10;40.00;;;;;;;;;;5056444;28;20428;-72
2021/10/14 01:53:40;;;;;;;51.80;36.60;;;;;;;;;;5055757;28;20287;-73
2021/10/14 01:56:08;;;;;;;63.13;40.00;;;;;;;;;;5052341;28;20225;-73
2021/10/14 01:58:35;;;;;;;55.60;39.77;;;;;;;;;;5055032;28;20282;-73
2021/10/14 02:01:01;;;;;;;55.50;39.40;;;;;;;;;;5054446;28;20715;-73
2021/10/14 02:03:27;;;;;;;64.33;38.67;;;;;;;;;;5053824;28;20219;-73
2021/10/14 02:05:54;;;;;;;60.20;40.27;;;;;;;;;;5054831;28;20234;-73
2021/10/14 02:08:20;;;;;;;61.80;41.37;;;;;;;;;;5052463;28;21084;-73
2021/10/14 02:10:47;;;;;;;54.80;36.90;;;;;;;;;;5053276;28;20245;-73
2021/10/14 02:13:14;;;;;;;62.07;40.27;;;;;;;;;;5053598;28;20241;-73
2021/10/14 02:15:41;;;;;;;58.50;39.50;;;;;;;;;;5055277;28;20221;-73
2021/10/14 02:18:07;;;;;;;65.50;42.60;;;;;;;;;;5053658;28;20218;-73
2021/10/14 02:20:33;;;;;;;66.13;42.07;;;;;;;;;;5054145;28;20229;-73
2021/10/14 02:23:00;;;;;;;49.23;37.00;;;;;;;;;;5053511;28;20219;-73
2021/10/14 02:25:27;;;;;;;59.97;40.13;;;;;;;;;;5052960;28;20210;-73
2021/10/14 02:27:53;;;;;;;59.57;39.50;;;;;;;;;;5053317;28;20385;-73
2021/10/14 02:30:21;;;;;;;56.37;39.10;;;;;;;;;;5054666;28;20863;-73
2021/10/14 02:32:48;;;;;;;60.77;39.80;;;;;;;;;;5054355;28;20275;-73
2021/10/14 02:35:14;;;;;;;63.00;38.87;;;;;;;;;;5053220;28;20312;-73
2021/10/14 02:37:41;;;;;;;67.53;38.37;;;;;;;;;;5053521;28;20714;-73
2021/10/14 02:40:09;;;;;;;52.97;36.17;;;;;;;;;;5055546;28;20275;-73
2021/10/14 02:42:36;;;;;;;58.33;36.40;;;;;;;;;;5055564;28;20561;-73
2021/10/14 02:45:03;;;;;;;55.43;36.50;;;;;;;;;;5054936;28;20263;-73
2021/10/14 02:47:31;;;;;;;48.43;32.90;;;;;;;;;;5059062;28;20287;-73
2021/10/14 02:49:57;;;;;;;45.40;31.47;;;;;;;;;;5059014;28;20245;-73
2021/10/14 02:52:24;;;;;;;48.43;32.57;;;;;;;;;;5056833;28;20215;-73
2021/10/14 02:54:50;;;;;;;48.80;30.47;;;;;;;;;;5058148;28;20238;-73
2021/10/14 02:57:16;;;;;;;44.97;29.67;;;;;;;;;;5056766;28;20230;-72
2021/10/14 02:59:43;;;;;;;52.30;31.17;;;;;;;;;;5059180;28;20227;-72
2021/10/14 03:02:09;;;;;;;54.63;32.80;;;;;;;;;;5058242;28;20213;-72
2021/10/14 03:04:37;;;;;;;67.20;34.97;;;;;;;;;;5059194;28;20218;-72
2021/10/14 03:07:04;;;;;;;50.83;30.03;;;;;;;;;;5057121;28;20210;-72
2021/10/14 03:09:30;;;;;;;58.03;32.07;;;;;;;;;;5056908;28;20263;-72
2021/10/14 03:11:56;;;;;;;69.70;35.10;;;;;;;;;;5056100;28;20308;-72
2021/10/14 03:14:23;;;;;;;48.77;30.90;;;;;;;;;;5056931;28;20245;-72
2021/10/14 03:16:49;;;;;;;63.23;34.30;;;;;;;;;;5058796;28;20622;-71
2021/10/14 03:19:15;;;;;;;59.03;33.33;;;;;;;;;;5058324;28;20604;-71
2021/10/14 03:21:43;;;;;;;52.70;31.93;;;;;;;;;;5056140;28;20231;-71
2021/10/14 03:24:10;;;;;;;60.67;34.03;;;;;;;;;;5057520;28;20218;-71
2021/10/14 03:26:36;;;;;;;58.00;33.40;;;;;;;;;;5057075;28;20265;-71
2021/10/14 03:29:02;;;;;;;60.40;32.87;;;;;;;;;;5056630;28;20270;-71
2021/10/14 03:31:29;;;;;;;58.47;33.03;;;;;;;;;;5057279;28;20272;-71
2021/10/14 03:33:56;;;;;;;53.93;31.67;;;;;;;;;;5057595;28;20267;-71
2021/10/14 03:36:22;;;;;;;60.53;34.37;;;;;;;;;;5055727;28;20230;-70
2021/10/14 03:38:50;;;;;;;62.07;34.83;;;;;;;;;;5055711;28;20260;-70
2021/10/14 03:41:16;;;;;;;57.33;35.10;;;;;;;;;;5055604;28;20265;-70
2021/10/14 03:43:43;;;;;;;56.60;33.80;;;;;;;;;;5056451;28;20689;-70
2021/10/14 03:46:09;;;;;;;72.47;36.77;;;;;;;;;;5057304;28;20331;-71
2021/10/14 03:48:36;;;;;;;73.40;38.60;;;;;;;;;;5057590;28;20214;-70
2021/10/14 03:51:02;;;;;;;72.20;38.47;;;;;;;;;;5055843;28;20234;-70
2021/10/14 03:53:28;;;;;;;70.77;36.80;;;;;;;;;;5057867;28;20226;-71
2021/10/14 03:55:57;;;;;;;68.30;36.83;;;;;;;;;;5055503;28;20242;-70
2021/10/14 03:58:24;;;;;;;74.97;38.70;;;;;;;;;;5056067;28;20261;-70
2021/10/14 04:00:50;;;;;;;71.63;37.67;;;;;;;;;;5057589;28;20750;-70
2021/10/14 04:03:16;;;;;;;62.60;35.77;;;;;;;;;;5058164;28;20226;-70
2021/10/14 04:05:43;;;;;;;59.23;33.20;;;;;;;;;;5055950;28;20230;-71
2021/10/14 04:08:09;;;;;;;54.23;33.30;;;;;;;;;;5058025;28;21224;-70
2021/10/14 04:10:37;;;;;;;51.20;33.30;;;;;;;;;;5058095;28;20586;-70
2021/10/14 04:13:05;;;;;;;41.20;27.93;;;;;;;;;;5056565;28;20939;-70
2021/10/14 04:15:31;;;;;;;36.70;26.47;;;;;;;;;;5055449;28;20234;-70
2021/10/14 04:17:58;;;;;;;31.73;23.83;;;;;;;;;;5057761;28;20638;-70
2021/10/14 04:20:25;;;;;;;26.00;20.17;;;;;;;;;;5057379;28;20234;-70
2021/10/14 04:22:52;;;;;;;24.77;19.70;;;;;;;;;;5055610;28;20310;-70
2021/10/14 04:25:18;;;;;;;23.73;18.77;;;;;;;;;;5055482;28;20264;-70
2021/10/14 04:27:45;;;;;;;28.80;21.00;;;;;;;;;;5055741;28;20561;-71
2021/10/14 04:30:13;;;;;;;30.47;21.73;;;;;;;;;;5055380;28;20215;-70
2021/10/14 04:32:40;;;;;;;27.90;18.80;;;;;;;;;;5054212;28;20263;-69
2021/10/14 04:35:07;;;;;;;24.37;17.07;;;;;;;;;;5056728;28;20261;-69
2021/10/14 04:37:34;;;;;;;24.07;16.33;;;;;;;;;;5056803;28;20222;-69
2021/10/14 04:40:00;;;;;;;23.07;18.03;;;;;;;;;;5056218;28;20660;-70
2021/10/14 04:42:26;;;;;;;28.20;17.27;;;;;;;;;;5056116;28;20623;-71
2021/10/14 04:44:53;;;;;;;24.03;18.33;;;;;;;;;;5054235;28;20206;-70
2021/10/14 04:47:21;;;;;;;25.57;19.03;;;;;;;;;;5057914;28;20214;-69
2021/10/14 04:49:48;;;;;;;26.80;19.53;;;;;;;;;;5056350;28;20255;-70
2021/10/14 04:52:15;;;;;;;26.77;19.50;;;;;;;;;;5056667;28;20213;-70
2021/10/14 04:54:41;;;;;;;28.73;20.47;;;;;;;;;;5056101;28;20288;-70
2021/10/14 04:57:08;;;;;;;30.23;19.87;;;;;;;;;;5057365;28;20686;-70
2021/10/14 04:59:35;;;;;;;34.60;19.43;;;;;;;;;;5057711;28;20263;-70
2021/10/14 05:02:01;;;;;;;31.37;18.83;;;;;;;;;;5054651;28;20210;-70
2021/10/14 05:04:29;;;;;;;28.77;18.80;;;;;;;;;;5055181;28;20213;-70
2021/10/14 05:06:55;;;;;;;28.10;18.30;;;;;;;;;;5055533;28;20218;-70
2021/10/14 05:09:21;;;;;;;31.90;19.87;;;;;;;;;;5054787;28;20255;-70
2021/10/14 05:11:48;;;;;;;31.10;19.63;;;;;;;;;;5055586;28;20234;-70
2021/10/14 05:14:15;;;;;;;30.67;20.63;;;;;;;;;;5057328;28;20242;-70
2021/10/14 05:16:41;;;;;;;30.90;19.60;;;;;;;;;;5055894;28;20596;-70
2021/10/14 05:19:07;;;;;;;39.90;22.50;;;;;;;;;;5055350;28;20206;-70
2021/10/14 05:21:35;;;;;;;35.90;22.83;;;;;;;;;;5054364;28;20230;-70
2021/10/14 05:24:02;;;;;;;36.23;21.43;;;;;;;;;;5054162;28;20222;-70
2021/10/14 05:26:29;;;;;;;43.63;24.27;;;;;;;;;;5057411;28;20235;-70
2021/10/14 05:28:56;;;;;;;38.23;23.67;;;;;;;;;;5054437;28;21049;-70
2021/10/14 05:31:22;;;;;;;36.03;24.17;;;;;;;;;;5055614;28;20749;-70
2021/10/14 05:33:49;;;;;;;40.33;24.07;;;;;;;;;;5054767;28;20268;-70
2021/10/14 05:36:16;;;;;;;39.73;24.53;;;;;;;;;;5054971;28;20245;-70
2021/10/14 05:38:44;;;;;;;40.07;24.43;;;;;;;;;;5053920;28;20210;-70
2021/10/14 05:41:11;;;;;;;42.40;25.23;;;;;;;;;;5055354;28;20210;-70
2021/10/14 05:43:37;;;;;;;36.23;23.50;;;;;;;;;;5053622;28;20230;-70
2021/10/14 05:46:03;;;;;;;47.53;26.13;;;;;;;;;;5054867;28;20654;-70
2021/10/14 05:48:30;;;;;;;42.67;26.03;;;;;;;;;;5054352;28;20268;-70
2021/10/14 05:50:56;;;;;;;45.83;26.33;;;;;;;;;;5055124;28;21020;-70
2021/10/14 05:53:22;;;;;;;50.17;27.23;;;;;;;;;;5055003;28;20275;-72
2021/10/14 05:55:50;;;;;;;47.23;26.17;;;;;;;;;;5054464;28;20238;-70
2021/10/14 05:58:16;;;;;;;48.10;26.73;;;;;;;;;;5053852;28;20288;-70
2021/10/14 06:00:43;;;;;;;43.47;25.07;;;;;;;;;;5054037;28;20288;-70
2021/10/14 06:03:09;;;;;;;42.53;23.83;;;;;;;;;;5053776;28;20211;-72
2021/10/14 06:05:36;;;;;;;33.40;22.77;;;;;;;;;;5052878;28;20230;-70
2021/10/14 06:08:02;;;;;;;40.90;24.30;;;;;;;;;;5050592;28;20253;-70
2021/10/14 06:10:29;;;;;;;37.47;21.50;;;;;;;;;;5053304;28;20418;-70
2021/10/14 06:12:56;;;;;;;30.10;20.47;;;;;;;;;;5051076;28;20284;-70
2021/10/14 06:15:23;;;;;;;25.67;18.37;;;;;;;;;;5050575;28;20238;-70
2021/10/14 06:17:49;;;;;;;31.27;18.63;;;;;;;;;;5052584;28;20221;-70
2021/10/14 06:20:16;;;;;;;29.93;19.20;;;;;;;;;;5051392;28;20234;-70
2021/10/14 06:22:42;;;;;;;32.77;20.40;;;;;;;;;;5052099;28;20209;-70
2021/10/14 06:25:09;;;;;;;32.60;21.70;;;;;;;;;;5051758;28;20213;-70
2021/10/14 06:27:35;;;;;;;33.23;20.97;;;;;;;;;;5052399;28;20235;-70
2021/10/14 06:30:04;;;;;;;34.80;21.60;;;;;;;;;;5055472;28;20213;-70
2021/10/14 06:32:30;;;;;;;43.70;25.43;;;;;;;;;;5051334;28;20256;-70
2021/10/14 06:34:56;;;;;;;42.13;24.80;;;;;;;;;;5050727;28;20230;-70
2021/10/14 06:37:23;;;;;;;38.97;24.37;;;;;;;;;;5052115;28;20288;-72
2021/10/14 06:39:49;;;;;;;42.83;26.87;;;;;;;;;;5050478;28;20554;-70
2021/10/14 06:42:16;;;;;;;38.07;24.93;;;;;;;;;;5051919;28;20291;-70
2021/10/14 06:44:42;;;;;;;42.43;25.03;;;;;;;;;;5051559;28;20218;-70
2021/10/14 06:47:10;;;;;;;38.27;24.13;;;;;;;;;;5050183;28;20262;-70
2021/10/14 06:49:36;;;;;;;38.37;25.20;;;;;;;;;;5052545;28;20543;-70
2021/10/14 06:52:03;;;;;;;35.00;23.53;;;;;;;;;;5051476;28;20272;-70
2021/10/14 06:54:29;;;;;;;31.53;22.60;;;;;;;;;;5052473;28;20339;-70
2021/10/14 06:56:55;;;;;;;36.17;24.23;;;;;;;;;;5051811;28;20242;-70
2021/10/14 06:59:22;;;;;;;35.63;23.10;;;;;;;;;;5052023;28;20848;-70
2021/10/14 07:01:48;;;;;;;32.13;21.00;;;;;;;;;;5053477;28;20279;-70
2021/10/14 07:04:16;;;;;;;35.93;20.33;;;;;;;;;;5051039;28;20655;-70
2021/10/14 07:06:42;;;;;;;34.17;20.93;;;;;;;;;;5051289;28;20284;-70
2021/10/14 07:09:09;;;;;;;32.30;19.50;;;;;;;;;;5050408;28;20215;-72
2021/10/14 07:11:42;;;;;;;27.87;18.67;;;;;;;;;;5051861;28;20946;-70
2021/10/14 07:14:09;;;;;;;26.93;17.70;;;;;;;;;;5051003;28;20246;-70
2021/10/14 07:16:36;;;;;;;24.97;16.87;;;;;;;;;;5051708;28;20237;-70
2021/10/14 07:19:02;;;;;;;24.43;17.97;;;;;;;;;;5053249;28;20219;-70
2021/10/14 07:21:30;;;;;;;23.80;15.83;;;;;;;;;;5052029;28;20226;-70
2021/10/14 07:23:57;;;;;;;21.53;16.73;;;;;;;;;;5051663;28;20210;-70
2021/10/14 07:26:23;;;;;;;24.87;16.40;;;;;;;;;;5050898;28;20341;-70
2021/10/14 07:28:49;;;;;;;22.20;15.17;;;;;;;;;;5046433;28;20510;-70
2021/10/14 07:31:16;;;;;;;25.03;16.30;;;;;;;;;;5049937;28;20214;-70
2021/10/14 07:33:43;;;;;;;25.97;15.23;;;;;;;;;;5054087;28;20214;-70
2021/10/14 07:36:10;;;;;;;25.93;16.37;;;;;;;;;;5052693;28;20295;-70
2021/10/14 07:38:37;;;;;;;22.80;14.93;;;;;;;;;;5055440;28;20822;-70
2021/10/14 07:41:05;;;;;;;16.63;13.50;;;;;;;;;;5053044;28;20245;-70
2021/10/14 07:43:31;;;;;;;17.60;12.80;;;;;;;;;;5054059;28;20317;-70
2021/10/14 07:45:59;;;;;;;18.30;13.07;;;;;;;;;;5052990;28;20609;-70
2021/10/14 07:48:25;;;;;;;24.03;12.93;;;;;;;;;;5051068;28;20221;-70
2021/10/14 07:50:52;;;;;;;19.70;13.23;;;;;;;;;;5053689;28;20295;-70
2021/10/14 07:53:20;;;;;;;17.90;12.53;;;;;;;;;;5054264;28;20214;-70
2021/10/14 07:55:48;;;;;;;13.77;10.73;;;;;;;;;;5055740;28;20238;-70
2021/10/14 07:58:14;;;;;;;13.70;10.03;;;;;;;;;;5053188;28;20600;-70
2021/10/14 08:00:41;;;;;;;13.33;9.47;;;;;;;;;;5054847;28;20273;-70
2021/10/14 08:03:08;;;;;;;14.20;9.40;;;;;;;;;;5055398;28;20202;-70
2021/10/14 08:05:34;;;;;;;14.17;8.67;;;;;;;;;;5056666;28;20670;-70
2021/10/14 08:08:01;;;;;;;9.70;7.70;;;;;;;;;;5054575;28;21105;-71
2021/10/14 08:10:28;;;;;;;9.03;7.83;;;;;;;;;;5054712;28;20306;-70
2021/10/14 08:12:55;;;;;;;11.77;7.20;;;;;;;;;;5054535;28;20358;-70
2021/10/14 08:15:22;;;;;;;11.50;7.40;;;;;;;;;;5052638;28;20242;-70
2021/10/14 08:17:49;;;;;;;8.97;6.97;;;;;;;;;;5054699;28;20665;-70
2021/10/14 08:20:15;;;;;;;11.20;6.87;;;;;;;;;;5053851;28;20922;-70
2021/10/14 08:22:42;;;;;;;8.60;6.00;;;;;;;;;;5052455;28;20218;-71
2021/10/14 08:25:12;;;;;;;9.40;5.13;;;;;;;;;;5053645;28;20267;-70
2021/10/14 08:27:39;;;;;;;6.33;4.20;;;;;;;;;;5053700;28;20233;-71
2021/10/14 08:30:08;;;;;;;7.63;4.70;;;;;;;;;;5054576;28;20275;-71
2021/10/14 08:32:35;;;;;;;9.03;4.40;;;;;;;;;;5053573;28;20378;-71
2021/10/14 08:35:02;;;;;;;7.10;3.97;;;;;;;;;;5052309;28;21210;-70
2021/10/14 08:37:29;;;;;;;7.13;4.07;;;;;;;;;;5055152;28;20235;-70
2021/10/14 08:39:56;;;;;;;7.60;3.50;;;;;;;;;;5053067;28;20215;-71
2021/10/14 08:42:22;;;;;;;7.77;3.83;;;;;;;;;;5052939;28;20260;-71
2021/10/14 08:44:49;;;;;;;6.90;3.60;;;;;;;;;;5054110;28;20214;-70
2021/10/14 08:47:17;;;;;;;6.97;3.87;;;;;;;;;;5051716;28;21113;-71
2021/10/14 08:49:45;;;;;;;8.17;3.70;;;;;;;;;;5054500;28;20740;-71
2021/10/14 08:52:12;;;;;;;6.43;3.83;;;;;;;;;;5052558;28;20210;-71
2021/10/14 08:54:40;;;;;;;7.17;4.40;;;;;;;;;;5054271;28;20649;-71
2021/10/14 08:57:07;;;;;;;8.83;4.37;;;;;;;;;;5054086;28;20241;-71
2021/10/14 08:59:33;;;;;;;5.77;3.70;;;;;;;;;;5052856;28;20214;-71
2021/10/14 09:02:19;;;;;;;7.27;3.67;;;;;;;;;;5053589;28;20207;-71
2021/10/14 09:04:57;;;;;;;5.00;3.70;;;;;;;;;;5054094;28;20295;-71
2021/10/14 09:07:25;;;;;;;5.57;4.50;;;;;;;;;;5055061;28;20261;-71
2021/10/14 09:09:53;;;;;;;6.60;3.90;;;;;;;;;;5053361;28;20209;-70
2021/10/14 09:12:22;;;;;;;11.50;4.03;;;;;;;;;;5052289;28;20242;-70
2021/10/14 09:14:56;;;;;;;6.37;4.17;;;;;;;;;;5054591;28;20214;-71
2021/10/14 09:17:48;;;;;;;6.53;4.43;;;;;;;;;;5055062;28;20229;-71
2021/10/14 09:20:31;;;;;;;6.57;4.00;;;;;;;;;;5053474;28;20807;-71
2021/10/14 09:22:59;;;;;;;7.07;4.10;;;;;;;;;;5052441;28;20346;-70
2021/10/14 09:25:31;;;;;;;5.47;3.63;;;;;;;;;;5051758;28;20210;-71
2021/10/14 09:28:10;;;;;;;5.90;3.70;;;;;;;;;;5053945;28;20226;-71
2021/10/14 09:30:44;;;;;;;5.00;3.60;;;;;;;;;;5053919;28;20201;-71
2021/10/14 09:33:35;;;;;;;4.43;3.07;;;;;;;;;;5054307;28;20298;-71
2021/10/14 09:36:20;;;;;;;4.73;3.67;;;;;;;;;;5052229;28;20226;-71
2021/10/14 09:38:49;;;;;;;8.43;3.50;;;;;;;;;;5054231;28;20738;-71
2021/10/14 09:41:17;;;;;;;3.87;2.57;;;;;;;;;;5054134;28;20339;-70
2021/10/14 09:43:47;;;;;;;5.93;3.23;;;;;;;;;;5053176;28;20279;-71
2021/10/14 09:46:33;;;;;;;6.63;3.60;;;;;;;;;;5052214;28;20581;-71
2021/10/14 09:49:01;;;;;;;6.00;3.30;;;;;;;;;;5054433;28;20202;-71
2021/10/14 09:51:28;;;;;;;7.20;3.33;;;;;;;;;;5053967;28;20727;-71
2021/10/14 09:53:55;;;;;;;3.77;2.93;;;;;;;;;;5052997;28;20222;-71
2021/10/14 09:56:21;;;;;;;4.87;2.47;;;;;;;;;;5052259;28;20238;-71
2021/10/14 09:58:48;;;;;;;5.63;2.70;;;;;;;;;;5051118;28;20738;-71
2021/10/14 10:01:14;;;;;;;3.77;2.27;;;;;;;;;;5053481;28;20226;-71
2021/10/14 10:03:41;;;;;;;2.97;2.57;;;;;;;;;;5051643;28;20358;-71
2021/10/14 10:06:11;;;;;;;4.87;1.97;;;;;;;;;;5051957;28;20333;-71
2021/10/14 10:08:41;;;;;;;3.27;2.40;;;;;;;;;;5052286;28;20709;-71
2021/10/14 10:11:10;;;;;;;3.20;2.40;;;;;;;;;;5053756;28;20222;-71
2021/10/14 10:13:40;;;;;;;5.50;2.40;;;;;;;;;;5052562;28;20262;-71
2021/10/14 10:16:17;;;;;;;4.00;2.50;;;;;;;;;;5051178;28;20889;-71
2021/10/14 10:18:43;;;;;;;5.27;2.43;;;;;;;;;;5053457;28;20200;-71
2021/10/14 10:21:38;;;;;;;3.30;2.67;;;;;;;;;;5052724;28;20242;-71
2021/10/14 10:24:05;;;;;;;5.10;2.60;;;;;;;;;;5054328;28;20261;-71
2021/10/14 10:26:47;;;;;;;2.40;2.13;;;;;;;;;;5052173;28;20350;-71
2021/10/14 10:29:43;;;;;;;3.23;2.47;;;;;;;;;;5049957;28;20210;-71
2021/10/14 10:32:21;;;;;;;3.60;2.53;;;;;;;;;;5053305;28;20214;-71
2021/10/14 10:35:01;;;;;;;2.77;2.20;;;;;;;;;;5052231;28;20222;-71
2021/10/14 10:37:50;;;;;;;2.33;2.10;;;;;;;;;;5052501;28;20222;-70
2021/10/14 10:40:22;;;;;;;4.07;2.77;;;;;;;;;;5052289;28;20216;-71
2021/10/14 10:42:55;;;;;;;5.90;3.27;;;;;;;;;;5054057;28;20272;-71
2021/10/14 10:45:23;;;;;;;3.67;2.47;;;;;;;;;;5052811;28;20199;-71
2021/10/14 10:47:57;;;;;;;3.33;2.37;;;;;;;;;;5053912;28;20210;-71
2021/10/14 10:50:26;;;;;;;5.30;3.00;;;;;;;;;;5052294;28;20234;-72
2021/10/14 10:53:04;;;;;;;3.53;2.50;;;;;;;;;;5052026;28;20272;-71
2021/10/14 10:55:39;;;;;;;3.67;2.70;;;;;;;;;;5051904;28;20218;-71
2021/10/14 10:58:08;;;;;;;4.10;2.60;;;;;;;;;;5052048;28;20226;-71
2021/10/14 11:00:36;;;;;;;3.10;2.47;;;;;;;;;;5051800;28;20831;-71
2021/10/14 11:03:11;;;;;;;3.30;2.13;;;;;;;;;;5052788;28;20258;-71
2021/10/14 11:05:42;;;;;;;4.10;2.43;;;;;;;;;;5051665;28;20234;-71
2021/10/14 11:08:12;;;;;;;4.30;2.60;;;;;;;;;;5054025;28;20206;-71
2021/10/14 11:10:39;;;;;;;3.67;2.27;;;;;;;;;;5056898;28;20649;-71
2021/10/14 11:13:05;;;;;;;2.73;2.27;;;;;;;;;;5057190;28;20246;-71
2021/10/14 11:15:32;;;;;;;3.93;2.87;;;;;;;;;;5056145;28;20275;-71
2021/10/14 11:18:03;;;;;;;7.00;3.10;;;;;;;;;;5054446;28;20269;-71
2021/10/14 11:20:30;;;;;;;5.50;2.50;;;;;;;;;;5054908;28;20333;-71
2021/10/14 11:23:05;;;;;;;4.37;2.70;;;;;;;;;;5057460;28;20214;-72
2021/10/14 11:25:33;;;;;;;4.53;2.60;;;;;;;;;;5055839;28;20210;-71
2021/10/14 11:28:03;;;;;;;3.83;2.13;;;;;;;;;;5055200;28;20238;-72
2021/10/14 11:30:38;;;;;;;4.30;2.37;;;;;;;;;;5057135;28;20718;-72
2021/10/14 11:33:10;;;;;;;2.73;2.40;;;;;;;;;;5056594;28;20206;-71
2021/10/14 11:35:36;;;;;;;4.53;2.50;;;;;;;;;;5056341;28;20235;-71
2021/10/14 11:38:10;;;;;;;4.80;2.40;;;;;;;;;;5055729;28;20238;-71
2021/10/14 11:40:41;;;;;;;7.73;2.07;;;;;;;;;;5053838;28;20229;-71
2021/10/14 11:43:08;;;;;;;3.83;2.57;;;;;;;;;;5053994;28;20318;-71
2021/10/14 11:45:42;;;;;;;2.60;2.40;;;;;;;;;;5054931;28;20211;-71
2021/10/14 11:48:31;;;;;;;4.17;2.40;;;;;;;;;;5055887;28;20657;-74
2021/10/14 11:51:05;;;;;;;4.27;2.30;;;;;;;;;;5054637;28;20233;-71
2021/10/14 11:53:32;;;;;;;4.73;2.90;;;;;;;;;;5052876;28;20206;-71
2021/10/14 11:56:01;;;;;;;5.67;2.40;;;;;;;;;;5054286;28;20218;-71
2021/10/14 11:58:27;;;;;;;2.90;2.03;;;;;;;;;;5054498;28;20682;-71
2021/10/14 12:00:55;;;;;;;4.40;2.50;;;;;;;;;;5054962;28;20214;-71
2021/10/14 12:03:22;;;;;;;10.47;2.50;;;;;;;;;;5056843;28;20343;-71
2021/10/14 12:05:49;;;;;;;4.20;2.00;;;;;;;;;;5055975;28;20226;-71
2021/10/14 12:08:17;;;;;;;3.37;2.30;;;;;;;;;;5053915;28;20727;-72
2021/10/14 12:10:48;;;;;;;5.73;2.13;;;;;;;;;;5055855;28;20684;-72
2021/10/14 12:13:16;;;;;;;6.10;2.23;;;;;;;;;;5054519;28;20337;-72
2021/10/14 12:15:43;;;;;;;4.40;1.87;;;;;;;;;;5054824;28;21058;-71
2021/10/14 12:18:27;;;;;;;5.77;2.60;;;;;;;;;;5054291;28;20238;-72
2021/10/14 12:20:53;;;;;;;7.73;2.17;;;;;;;;;;5055005;28;20218;-72
2021/10/14 12:23:28;;;;;;;9.90;2.07;;;;;;;;;;5053124;28;20219;-72
2021/10/14 12:26:09;;;;;;;4.13;2.10;;;;;;;;;;5056534;28;20293;-72
2021/10/14 12:28:41;;;;;;;3.33;1.93;;;;;;;;;;5053347;28;20284;-71
2021/10/14 12:31:09;;;;;;;5.93;2.23;;;;;;;;;;5052988;28;20221;-72
2021/10/14 12:33:36;;;;;;;6.10;2.70;;;;;;;;;;5053293;28;20252;-72
2021/10/14 12:36:02;;;;;;;3.63;2.13;;;;;;;;;;5053789;28;20726;-72
2021/10/14 12:38:35;;;;;;;2.90;2.13;;;;;;;;;;5053648;28;20225;-71
2021/10/14 12:41:04;;;;;;;4.83;2.30;;;;;;;;;;5055676;28;20206;-71
2021/10/14 12:43:45;;;;;;;5.23;1.90;;;;;;;;;;5059084;28;20308;-71
2021/10/14 12:46:21;;;;;;;2.43;2.10;;;;;;;;;;5046410;28;20293;-71
2021/10/14 12:48:53;;;;;;;8.20;2.57;;;;;;;;;;5054569;28;20214;-71
2021/10/14 12:51:21;;;;;;;5.13;1.77;;;;;;;;;;5043147;28;20709;-71
2021/10/14 12:53:50;;;;;;;3.73;2.10;;;;;;;;;;5051668;28;20672;-71
2021/10/14 12:56:18;;;;;;;2.63;1.90;;;;;;;;;;5051616;28;20287;-71
2021/10/14 12:58:47;;;;;;;4.27;1.60;;;;;;;;;;5050522;28;20392;-71
2021/10/14 13:01:17;;;;;;;2.83;1.73;;;;;;;;;;5054208;28;20542;-71
2021/10/14 13:03:44;;;;;;;2.77;2.00;;;;;;;;;;5051144;28;20684;-71
2021/10/14 13:06:10;;;;;;;5.80;1.83;;;;;;;;;;5051383;28;20230;-71
2021/10/14 13:08:40;;;;;;;2.03;1.57;;;;;;;;;;5051987;28;20670;-71
2021/10/14 13:11:09;;;;;;;3.50;1.50;;;;;;;;;;5050979;28;20367;-71
2021/10/14 13:13:36;;;;;;;4.00;2.20;;;;;;;;;;5052057;28;20238;-71
2021/10/14 13:16:05;;;;;;;4.20;1.80;;;;;;;;;;5053183;28;20214;-71
2021/10/14 13:18:32;;;;;;;2.97;1.50;;;;;;;;;;5051559;28;20233;-71
2021/10/14 13:21:00;;;;;;;2.13;1.80;;;;;;;;;;5050551;28;21060;-71
2021/10/14 13:23:27;;;;;;;4.50;1.70;;;;;;;;;;5048445;28;20214;-72
2021/10/14 13:25:55;;;;;;;3.63;1.87;;;;;;;;;;5050298;28;20276;-72
2021/10/14 13:28:22;;;;;;;5.20;1.77;;;;;;;;;;5050744;28;20257;-72
2021/10/14 13:30:49;;;;;;;7.30;2.13;;;;;;;;;;5048647;28;20222;-72
2021/10/14 13:33:19;;;;;;;3.53;1.20;;;;;;;;;;5051529;28;20298;-72
2021/10/14 13:35:47;;;;;;;3.13;1.30;;;;;;;;;;5050605;28;20627;-72
2021/10/14 13:38:14;;;;;;;4.93;1.83;;;;;;;;;;5051253;28;20328;-72
2021/10/14 13:40:44;;;;;;;2.73;1.40;;;;;;;;;;5051067;28;20583;-72
2021/10/14 13:43:15;;;;;;;4.50;1.50;;;;;;;;;;5050132;28;20214;-72
2021/10/14 13:45:41;;;;;;;4.03;1.90;;;;;;;;;;5051406;28;20329;-71
2021/10/14 13:48:07;;;;;;;2.70;1.40;;;;;;;;;;5048851;28;20726;-72
2021/10/14 13:50:36;;;;;;;3.73;1.37;;;;;;;;;;5050954;28;20243;-72
2021/10/14 13:53:02;;;;;;;3.77;1.70;;;;;;;;;;5050877;28;20260;-71
2021/10/14 13:55:29;;;;;;;3.27;1.47;;;;;;;;;;5049149;28;20213;-72
2021/10/14 13:57:55;;;;;;;2.90;1.40;;;;;;;;;;5051761;28;20230;-72
2021/10/14 14:00:22;;;;;;;4.17;1.60;;;;;;;;;;5050991;28;20716;-72
2021/10/14 14:02:48;;;;;;;6.60;1.60;;;;;;;;;;5051104;28;20262;-72
2021/10/14 14:05:14;;;;;;;4.30;1.50;;;;;;;;;;5049432;28;20230;-71
2021/10/14 14:07:42;;;;;;;3.90;1.50;;;;;;;;;;5051360;28;20215;-71
2021/10/14 14:10:09;;;;;;;5.90;2.10;;;;;;;;;;5050171;28;20209;-71
2021/10/14 14:12:36;;;;;;;7.37;1.93;;;;;;;;;;5050862;28;21555;-71
2021/10/14 14:15:03;;;;;;;7.67;1.90;;;;;;;;;;5050082;28;20234;-71
2021/10/14 14:17:29;;;;;;;5.97;1.43;;;;;;;;;;5050253;28;21248;-71
2021/10/14 14:19:56;;;;;;;3.37;1.63;;;;;;;;;;5052056;28;20246;-71
2021/10/14 14:22:22;;;;;;;4.73;1.40;;;;;;;;;;5052650;28;20247;-71
2021/10/14 14:24:50;;;;;;;4.57;1.80;;;;;;;;;;5048475;28;20206;-71
2021/10/14 14:27:16;;;;;;;3.10;2.17;;;;;;;;;;5052586;28;20256;-71
2021/10/14 14:29:43;;;;;;;6.37;1.70;;;;;;;;;;5054913;28;20210;-71
2021/10/14 14:32:10;;;;;;;5.50;1.63;;;;;;;;;;5053710;28;20206;-71
2021/10/14 14:34:38;;;;;;;3.23;1.70;;;;;;;;;;5051849;28;20262;-71